SWA3254 KSAN-KLAS
Flight info
| Callsign | SWA3254 |
|---|---|
| Flight time | 0h 54m |
| Altitude | 29000 |
| Route | PADRZ2 CHKNN SEBBY YELAH MISEN RNDRZ4 |
| Aircraft | B38M/M-SDE1FGHILORVWXY/HB1 |
Departure
| Time | 2026-05-07 18:23 |
|---|---|
| Airport | San Diego International Airport (KSAN) |
Arrival
| Time | 2026-05-07 19:17 |
|---|---|
| Airport | Harry Reid International Airport (KLAS) |
| Time | Latitude | Longitude | Altitude | Speed | Heading |
|---|---|---|---|---|---|
| 2026-05-07 17:58 | 32.73252 | -117.20072 | 27 ft | 0 kts | 247° |
| 2026-05-07 18:11 | 32.73257 | -117.20059 | 27 ft | 2 kts | 247° |
| 2026-05-07 18:11 | 32.73263 | -117.20041 | 27 ft | 2 kts | 248° |
| 2026-05-07 18:11 | 32.73268 | -117.20023 | 27 ft | 2 kts | 263° |
| 2026-05-07 18:12 | 32.73269 | -117.20003 | 27 ft | 2 kts | 275° |
| 2026-05-07 18:12 | 32.73261 | -117.19993 | 27 ft | 1 kts | 15° |
| 2026-05-07 18:12 | 32.73260 | -117.19994 | 27 ft | 0 kts | 15° |
| 2026-05-07 18:15 | 32.73269 | -117.19992 | 27 ft | 3 kts | 9° |
| 2026-05-07 18:15 | 32.73278 | -117.19991 | 27 ft | 1 kts | 6° |
| 2026-05-07 18:15 | 32.73294 | -117.19989 | 27 ft | 3 kts | 4° |
| 2026-05-07 18:16 | 32.73340 | -117.19983 | 28 ft | 13 kts | 8° |
| 2026-05-07 18:16 | 32.73443 | -117.19957 | 29 ft | 14 kts | 14° |
| 2026-05-07 18:16 | 32.73469 | -117.19860 | 30 ft | 15 kts | 105° |
| 2026-05-07 18:16 | 32.73444 | -117.19759 | 29 ft | 12 kts | 105° |
| 2026-05-07 18:17 | 32.73418 | -117.19647 | 29 ft | 15 kts | 105° |
| 2026-05-07 18:17 | 32.73399 | -117.19569 | 29 ft | 8 kts | 106° |
| 2026-05-07 18:17 | 32.73381 | -117.19492 | 29 ft | 11 kts | 106° |
| 2026-05-07 18:17 | 32.73356 | -117.19391 | 28 ft | 15 kts | 106° |
| 2026-05-07 18:18 | 32.73322 | -117.19256 | 27 ft | 19 kts | 106° |
| 2026-05-07 18:18 | 32.73305 | -117.19182 | 26 ft | 9 kts | 106° |
| 2026-05-07 18:18 | 32.73286 | -117.19105 | 28 ft | 10 kts | 106° |
| 2026-05-07 18:18 | 32.73265 | -117.19017 | 29 ft | 12 kts | 106° |
| 2026-05-07 18:19 | 32.73240 | -117.18911 | 29 ft | 14 kts | 106° |
| 2026-05-07 18:19 | 32.73215 | -117.18807 | 30 ft | 13 kts | 106° |
| 2026-05-07 18:19 | 32.73189 | -117.18700 | 30 ft | 15 kts | 106° |
| 2026-05-07 18:19 | 32.73159 | -117.18576 | 27 ft | 13 kts | 106° |
| 2026-05-07 18:20 | 32.73130 | -117.18458 | 26 ft | 16 kts | 107° |
| 2026-05-07 18:20 | 32.73095 | -117.18318 | 27 ft | 19 kts | 106° |
| 2026-05-07 18:20 | 32.73056 | -117.18155 | 27 ft | 22 kts | 106° |
| 2026-05-07 18:20 | 32.73024 | -117.18019 | 27 ft | 0 kts | 94° |
| 2026-05-07 18:21 | 32.73014 | -117.17972 | 25 ft | 15 kts | 107° |
| 2026-05-07 18:21 | 32.72969 | -117.17802 | 24 ft | 26 kts | 108° |
| 2026-05-07 18:21 | 32.72950 | -117.17707 | 22 ft | 8 kts | 85° |
| 2026-05-07 18:21 | 32.72954 | -117.17686 | 23 ft | 0 kts | 75° |
| 2026-05-07 18:22 | 32.72966 | -117.17642 | 25 ft | 13 kts | 62° |
| 2026-05-07 18:22 | 32.73025 | -117.17626 | 26 ft | 15 kts | 329° |
| 2026-05-07 18:22 | 32.73043 | -117.17672 | 25 ft | 4 kts | 285° |
| 2026-05-07 18:22 | 32.73133 | -117.18047 | 24 ft | 94 kts | 286° |
| 2026-05-07 18:23 | 32.73388 | -117.19087 | 114 ft | 160 kts | 285° |
| 2026-05-07 18:23 | 32.73738 | -117.20458 | 799 ft | 174 kts | 285° |
| 2026-05-07 18:23 | 32.74086 | -117.21789 | 2019 ft | 175 kts | 291° |
| 2026-05-07 18:23 | 32.74695 | -117.23147 | 2738 ft | 198 kts | 307° |
| 2026-05-07 18:24 | 32.75545 | -117.24525 | 3524 ft | 217 kts | 307° |
| 2026-05-07 18:24 | 32.76468 | -117.26041 | 4331 ft | 236 kts | 307° |
| 2026-05-07 18:24 | 32.77465 | -117.27693 | 5143 ft | 256 kts | 307° |
| 2026-05-07 18:24 | 32.78532 | -117.29474 | 5981 ft | 272 kts | 306° |
| 2026-05-07 18:25 | 32.79635 | -117.31317 | 7068 ft | 275 kts | 308° |
| 2026-05-07 18:25 | 32.80815 | -117.33145 | 8070 ft | 283 kts | 309° |
| 2026-05-07 18:25 | 32.82029 | -117.35016 | 9101 ft | 288 kts | 309° |
| 2026-05-07 18:25 | 32.83249 | -117.36903 | 10094 ft | 295 kts | 309° |
| 2026-05-07 18:26 | 32.84527 | -117.38886 | 10792 ft | 311 kts | 309° |
| 2026-05-07 18:26 | 32.85886 | -117.40998 | 11318 ft | 332 kts | 309° |
| 2026-05-07 18:26 | 32.87317 | -117.43226 | 11954 ft | 345 kts | 310° |
| 2026-05-07 18:26 | 32.88789 | -117.45517 | 12753 ft | 352 kts | 310° |
| 2026-05-07 18:27 | 32.90277 | -117.47836 | 13695 ft | 355 kts | 310° |
| 2026-05-07 18:27 | 32.91788 | -117.50192 | 14484 ft | 360 kts | 310° |
| 2026-05-07 18:27 | 32.93314 | -117.52570 | 15269 ft | 363 kts | 310° |
| 2026-05-07 18:27 | 32.94834 | -117.54940 | 16028 ft | 367 kts | 310° |
| 2026-05-07 18:28 | 32.96394 | -117.57370 | 16767 ft | 371 kts | 310° |
| 2026-05-07 18:28 | 32.97968 | -117.59827 | 17491 ft | 375 kts | 310° |
| 2026-05-07 18:28 | 32.99557 | -117.62307 | 18216 ft | 379 kts | 310° |
| 2026-05-07 18:28 | 33.01165 | -117.64820 | 18851 ft | 383 kts | 310° |
| 2026-05-07 18:29 | 33.02786 | -117.67352 | 19469 ft | 386 kts | 310° |
| 2026-05-07 18:29 | 33.04414 | -117.69900 | 20104 ft | 389 kts | 310° |
| 2026-05-07 18:29 | 33.06077 | -117.72464 | 20719 ft | 392 kts | 314° |
| 2026-05-07 18:29 | 33.08072 | -117.74654 | 21307 ft | 391 kts | 323° |
| 2026-05-07 18:30 | 33.10150 | -117.76774 | 21889 ft | 395 kts | 322° |
| 2026-05-07 18:30 | 33.12218 | -117.78887 | 22485 ft | 398 kts | 322° |
| 2026-05-07 18:30 | 33.14331 | -117.81040 | 23073 ft | 402 kts | 322° |
| 2026-05-07 18:30 | 33.16466 | -117.83215 | 23647 ft | 405 kts | 322° |
| 2026-05-07 18:31 | 33.18613 | -117.85403 | 24129 ft | 408 kts | 323° |
| 2026-05-07 18:31 | 33.20814 | -117.87553 | 24617 ft | 410 kts | 323° |
| 2026-05-07 18:31 | 33.23024 | -117.89700 | 25099 ft | 412 kts | 323° |
| 2026-05-07 18:31 | 33.25249 | -117.91872 | 25583 ft | 415 kts | 323° |
| 2026-05-07 18:32 | 33.27491 | -117.94061 | 26051 ft | 417 kts | 323° |
| 2026-05-07 18:32 | 33.29746 | -117.96266 | 26514 ft | 420 kts | 323° |
| 2026-05-07 18:32 | 33.31979 | -117.98451 | 26978 ft | 422 kts | 323° |
| 2026-05-07 18:32 | 33.34255 | -118.00679 | 27416 ft | 424 kts | 323° |
| 2026-05-07 18:33 | 33.36541 | -118.02920 | 27880 ft | 427 kts | 323° |
| 2026-05-07 18:33 | 33.38843 | -118.05177 | 28309 ft | 429 kts | 323° |
| 2026-05-07 18:33 | 33.41154 | -118.07444 | 28642 ft | 434 kts | 322° |
| 2026-05-07 18:33 | 33.43492 | -118.09740 | 29043 ft | 437 kts | 322° |
| 2026-05-07 18:34 | 33.45864 | -118.12071 | 29086 ft | 445 kts | 322° |
| 2026-05-07 18:34 | 33.50674 | -118.16803 | 29095 ft | 448 kts | 322° |
| 2026-05-07 18:35 | 33.55450 | -118.21508 | 29090 ft | 447 kts | 322° |
| 2026-05-07 18:35 | 33.57946 | -118.23717 | 29060 ft | 445 kts | 333° |
| 2026-05-07 18:35 | 33.60739 | -118.25271 | 29093 ft | 446 kts | 336° |
| 2026-05-07 18:36 | 33.66367 | -118.28435 | 29086 ft | 447 kts | 337° |
| 2026-05-07 18:36 | 33.69305 | -118.29588 | 29059 ft | 444 kts | 351° |
| 2026-05-07 18:36 | 33.72370 | -118.29762 | 29076 ft | 442 kts | 6° |
| 2026-05-07 18:36 | 33.75367 | -118.28966 | 29083 ft | 442 kts | 20° |
| 2026-05-07 18:37 | 33.78087 | -118.27348 | 29086 ft | 443 kts | 32° |
| 2026-05-07 18:37 | 33.80461 | -118.24994 | 29067 ft | 445 kts | 46° |
| 2026-05-07 18:37 | 33.82449 | -118.22138 | 29090 ft | 446 kts | 50° |
| 2026-05-07 18:38 | 33.86185 | -118.16194 | 29083 ft | 446 kts | 52° |
| 2026-05-07 18:38 | 33.89823 | -118.10142 | 29072 ft | 446 kts | 53° |
| 2026-05-07 18:39 | 33.93426 | -118.04064 | 29076 ft | 445 kts | 53° |
| 2026-05-07 18:39 | 33.96985 | -117.98045 | 29073 ft | 444 kts | 53° |
| 2026-05-07 18:40 | 34.00557 | -117.91992 | 29074 ft | 444 kts | 53° |
| 2026-05-07 18:40 | 34.04133 | -117.85922 | 29092 ft | 444 kts | 53° |
| 2026-05-07 18:41 | 34.07710 | -117.79841 | 29093 ft | 444 kts | 53° |
| 2026-05-07 18:41 | 34.11550 | -117.74091 | 29099 ft | 443 kts | 49° |
| 2026-05-07 18:42 | 34.15482 | -117.68384 | 29085 ft | 443 kts | 50° |
| 2026-05-07 18:42 | 34.19408 | -117.62633 | 29080 ft | 444 kts | 50° |
| 2026-05-07 18:43 | 34.23303 | -117.56917 | 29075 ft | 444 kts | 50° |
| 2026-05-07 18:43 | 34.27226 | -117.51148 | 29055 ft | 444 kts | 50° |
| 2026-05-07 18:44 | 34.31108 | -117.45432 | 29051 ft | 443 kts | 50° |
| 2026-05-07 18:44 | 34.35013 | -117.39671 | 29040 ft | 442 kts | 50° |
| 2026-05-07 18:45 | 34.38912 | -117.33911 | 29033 ft | 442 kts | 50° |
| 2026-05-07 18:45 | 34.42809 | -117.28143 | 29021 ft | 442 kts | 50° |
| 2026-05-07 18:46 | 34.46667 | -117.22425 | 29092 ft | 442 kts | 50° |
| 2026-05-07 18:46 | 34.50554 | -117.16653 | 29030 ft | 442 kts | 50° |
| 2026-05-07 18:47 | 34.54432 | -117.10885 | 28993 ft | 441 kts | 50° |
| 2026-05-07 18:47 | 34.58322 | -117.05093 | 28999 ft | 442 kts | 50° |
| 2026-05-07 18:48 | 34.62175 | -116.99343 | 29020 ft | 442 kts | 50° |
| 2026-05-07 18:48 | 34.66046 | -116.93558 | 29034 ft | 442 kts | 50° |
| 2026-05-07 18:49 | 34.69926 | -116.87751 | 29044 ft | 442 kts | 50° |
| 2026-05-07 18:49 | 34.73796 | -116.81947 | 29065 ft | 442 kts | 50° |
| 2026-05-07 18:50 | 34.77662 | -116.76141 | 29075 ft | 442 kts | 50° |
| 2026-05-07 18:50 | 34.81491 | -116.70384 | 29077 ft | 442 kts | 50° |
| 2026-05-07 18:51 | 34.85395 | -116.64620 | 29053 ft | 440 kts | 44° |
| 2026-05-07 18:51 | 34.90139 | -116.59929 | 29029 ft | 440 kts | 38° |
| 2026-05-07 18:52 | 34.94918 | -116.55274 | 29045 ft | 439 kts | 37° |
| 2026-05-07 18:52 | 34.99678 | -116.50654 | 29019 ft | 438 kts | 37° |
| 2026-05-07 18:53 | 35.04409 | -116.46056 | 28991 ft | 438 kts | 37° |
| 2026-05-07 18:53 | 35.09172 | -116.41420 | 28991 ft | 438 kts | 38° |
| 2026-05-07 18:53 | 35.11402 | -116.38899 | 28063 ft | 440 kts | 47° |
| 2026-05-07 18:54 | 35.13446 | -116.36207 | 27825 ft | 426 kts | 45° |
| 2026-05-07 18:54 | 35.15469 | -116.33616 | 27272 ft | 421 kts | 45° |
| 2026-05-07 18:54 | 35.17477 | -116.31026 | 26672 ft | 419 kts | 45° |
| 2026-05-07 18:54 | 35.19475 | -116.28444 | 26043 ft | 416 kts | 45° |
| 2026-05-07 18:55 | 35.21432 | -116.25909 | 25436 ft | 415 kts | 45° |
| 2026-05-07 18:55 | 35.23371 | -116.23310 | 24781 ft | 414 kts | 46° |
| 2026-05-07 18:55 | 35.25289 | -116.20685 | 24179 ft | 413 kts | 47° |
| 2026-05-07 18:55 | 35.27200 | -116.18078 | 23605 ft | 411 kts | 46° |
| 2026-05-07 18:56 | 35.29104 | -116.15479 | 22924 ft | 409 kts | 46° |
| 2026-05-07 18:56 | 35.30999 | -116.12895 | 22326 ft | 406 kts | 47° |
| 2026-05-07 18:56 | 35.32863 | -116.10340 | 21666 ft | 404 kts | 47° |
| 2026-05-07 18:56 | 35.34708 | -116.07806 | 21092 ft | 401 kts | 47° |
| 2026-05-07 18:57 | 35.36553 | -116.05270 | 20571 ft | 397 kts | 47° |
| 2026-05-07 18:57 | 35.38381 | -116.02756 | 20031 ft | 394 kts | 47° |
| 2026-05-07 18:57 | 35.40200 | -116.00254 | 19495 ft | 392 kts | 47° |
| 2026-05-07 18:57 | 35.42005 | -115.97767 | 18955 ft | 389 kts | 47° |
| 2026-05-07 18:58 | 35.43799 | -115.95294 | 18434 ft | 387 kts | 47° |
| 2026-05-07 18:58 | 35.45580 | -115.92838 | 17862 ft | 385 kts | 47° |
| 2026-05-07 18:58 | 35.47330 | -115.90422 | 17342 ft | 382 kts | 47° |
| 2026-05-07 18:58 | 35.49248 | -115.87774 | 17045 ft | 371 kts | 47° |
| 2026-05-07 18:59 | 35.50754 | -115.85692 | 16847 ft | 362 kts | 47° |
| 2026-05-07 18:59 | 35.52387 | -115.83434 | 16658 ft | 352 kts | 48° |
| 2026-05-07 18:59 | 35.53989 | -115.81217 | 16479 ft | 342 kts | 48° |
| 2026-05-07 18:59 | 35.55546 | -115.79061 | 16317 ft | 333 kts | 48° |
| 2026-05-07 19:00 | 35.57057 | -115.76967 | 16152 ft | 323 kts | 48° |
| 2026-05-07 19:00 | 35.58528 | -115.74929 | 16018 ft | 314 kts | 48° |
| 2026-05-07 19:00 | 35.59969 | -115.72977 | 15835 ft | 306 kts | 47° |
| 2026-05-07 19:00 | 35.61389 | -115.71064 | 15692 ft | 303 kts | 47° |
| 2026-05-07 19:01 | 35.62809 | -115.69146 | 15527 ft | 304 kts | 47° |
| 2026-05-07 19:01 | 35.64232 | -115.67223 | 15388 ft | 304 kts | 47° |
| 2026-05-07 19:01 | 35.65644 | -115.65314 | 15231 ft | 303 kts | 47° |
| 2026-05-07 19:01 | 35.67060 | -115.63396 | 15092 ft | 303 kts | 47° |
| 2026-05-07 19:02 | 35.68455 | -115.61507 | 14942 ft | 302 kts | 47° |
| 2026-05-07 19:02 | 35.69864 | -115.59597 | 14785 ft | 302 kts | 47° |
| 2026-05-07 19:02 | 35.71272 | -115.57688 | 14640 ft | 301 kts | 47° |
| 2026-05-07 19:02 | 35.72706 | -115.55815 | 14475 ft | 300 kts | 40° |
| 2026-05-07 19:03 | 35.74466 | -115.54445 | 14318 ft | 300 kts | 30° |
| 2026-05-07 19:03 | 35.76279 | -115.53172 | 14169 ft | 300 kts | 31° |
| 2026-05-07 19:03 | 35.78088 | -115.51898 | 14021 ft | 300 kts | 31° |
| 2026-05-07 19:03 | 35.79897 | -115.50627 | 13884 ft | 299 kts | 31° |
| 2026-05-07 19:04 | 35.81707 | -115.49358 | 13707 ft | 299 kts | 30° |
| 2026-05-07 19:04 | 35.83488 | -115.48108 | 13558 ft | 299 kts | 30° |
| 2026-05-07 19:04 | 35.85284 | -115.46848 | 13394 ft | 299 kts | 30° |
| 2026-05-07 19:04 | 35.87091 | -115.45579 | 13253 ft | 298 kts | 30° |
| 2026-05-07 19:05 | 35.88893 | -115.44313 | 13101 ft | 298 kts | 29° |
| 2026-05-07 19:05 | 35.90692 | -115.43050 | 12966 ft | 296 kts | 29° |
| 2026-05-07 19:05 | 35.92485 | -115.41801 | 12706 ft | 296 kts | 29° |
| 2026-05-07 19:05 | 35.94273 | -115.40552 | 12458 ft | 295 kts | 29° |
| 2026-05-07 19:06 | 35.96061 | -115.39304 | 12231 ft | 295 kts | 29° |
| 2026-05-07 19:06 | 35.99585 | -115.36755 | 11702 ft | 293 kts | 38° |
| 2026-05-07 19:06 | 36.00856 | -115.34839 | 11394 ft | 296 kts | 62° |
| 2026-05-07 19:07 | 36.01379 | -115.32393 | 11144 ft | 298 kts | 85° |
| 2026-05-07 19:07 | 36.01308 | -115.29836 | 10930 ft | 299 kts | 90° |
| 2026-05-07 19:07 | 36.01205 | -115.27288 | 10687 ft | 296 kts | 91° |
| 2026-05-07 19:07 | 36.01092 | -115.24763 | 10424 ft | 293 kts | 91° |
| 2026-05-07 19:08 | 36.00976 | -115.22291 | 10175 ft | 289 kts | 91° |
| 2026-05-07 19:08 | 36.00855 | -115.19831 | 9938 ft | 285 kts | 91° |
| 2026-05-07 19:08 | 36.00735 | -115.17416 | 9696 ft | 279 kts | 91° |
| 2026-05-07 19:08 | 36.00617 | -115.15044 | 9427 ft | 275 kts | 91° |
| 2026-05-07 19:09 | 36.00500 | -115.12728 | 9172 ft | 272 kts | 91° |
| 2026-05-07 19:09 | 36.00384 | -115.10425 | 8985 ft | 265 kts | 91° |
| 2026-05-07 19:09 | 36.00269 | -115.08171 | 8740 ft | 261 kts | 92° |
| 2026-05-07 19:09 | 36.00158 | -115.05979 | 8462 ft | 248 kts | 92° |
| 2026-05-07 19:10 | 36.00052 | -115.03916 | 8237 ft | 234 kts | 92° |
| 2026-05-07 19:10 | 35.99953 | -115.01989 | 8071 ft | 214 kts | 91° |
| 2026-05-07 19:10 | 35.99919 | -115.00236 | 7877 ft | 197 kts | 88° |
| 2026-05-07 19:10 | 35.99909 | -114.98588 | 7553 ft | 189 kts | 88° |
| 2026-05-07 19:11 | 35.99897 | -114.96963 | 7287 ft | 189 kts | 89° |
| 2026-05-07 19:11 | 35.99884 | -114.95363 | 7026 ft | 189 kts | 87° |
| 2026-05-07 19:11 | 35.99904 | -114.93748 | 6592 ft | 184 kts | 81° |
| 2026-05-07 19:11 | 36.00410 | -114.92412 | 6265 ft | 167 kts | 45° |
| 2026-05-07 19:12 | 36.01295 | -114.91549 | 6102 ft | 160 kts | 35° |
| 2026-05-07 19:12 | 36.02235 | -114.90758 | 5967 ft | 169 kts | 32° |
| 2026-05-07 19:12 | 36.03307 | -114.90134 | 5802 ft | 174 kts | 8° |
| 2026-05-07 19:12 | 36.04498 | -114.90351 | 5694 ft | 177 kts | 336° |
| 2026-05-07 19:13 | 36.05598 | -114.91077 | 5670 ft | 179 kts | 332° |
| 2026-05-07 19:13 | 36.06603 | -114.91827 | 5550 ft | 164 kts | 315° |
| 2026-05-07 19:13 | 36.07109 | -114.93034 | 5318 ft | 162 kts | 283° |
| 2026-05-07 19:13 | 36.07246 | -114.94411 | 5098 ft | 162 kts | 277° |
| 2026-05-07 19:14 | 36.07334 | -114.95795 | 4848 ft | 161 kts | 274° |
| 2026-05-07 19:14 | 36.07354 | -114.97176 | 4639 ft | 160 kts | 271° |
| 2026-05-07 19:14 | 36.07365 | -114.98555 | 4386 ft | 160 kts | 272° |
| 2026-05-07 19:14 | 36.07370 | -114.99929 | 4164 ft | 160 kts | 272° |
| 2026-05-07 19:15 | 36.07372 | -115.01289 | 3951 ft | 159 kts | 270° |
| 2026-05-07 19:15 | 36.07371 | -115.02666 | 3706 ft | 162 kts | 270° |
| 2026-05-07 19:15 | 36.07370 | -115.04046 | 3482 ft | 163 kts | 271° |
| 2026-05-07 19:15 | 36.07368 | -115.05439 | 3249 ft | 164 kts | 270° |
| 2026-05-07 19:16 | 36.07368 | -115.06829 | 3033 ft | 163 kts | 271° |
| 2026-05-07 19:16 | 36.07368 | -115.08227 | 2809 ft | 163 kts | 270° |
| 2026-05-07 19:16 | 36.07366 | -115.09625 | 2612 ft | 163 kts | 269° |
| 2026-05-07 19:16 | 36.07369 | -115.11011 | 2356 ft | 160 kts | 270° |
| 2026-05-07 19:17 | 36.07366 | -115.12377 | 2193 ft | 158 kts | 270° |
| 2026-05-07 19:17 | 36.07368 | -115.13675 | 2121 ft | 125 kts | 269° |
| 2026-05-07 19:17 | 36.07373 | -115.14339 | 2131 ft | 41 kts | 279° |
| 2026-05-07 19:17 | 36.07431 | -115.14510 | 2129 ft | 16 kts | 301° |
| 2026-05-07 19:18 | 36.07498 | -115.14633 | 2127 ft | 12 kts | 318° |
| 2026-05-07 19:18 | 36.07578 | -115.14653 | 2127 ft | 13 kts | 1° |
| 2026-05-07 19:18 | 36.07675 | -115.14653 | 2127 ft | 16 kts | 359° |
| 2026-05-07 19:18 | 36.07782 | -115.14688 | 2122 ft | 9 kts | 327° |
| 2026-05-07 19:19 | 36.07825 | -115.14715 | 2122 ft | 4 kts | 342° |
| 2026-05-07 19:19 | 36.07861 | -115.14726 | 2122 ft | 6 kts | 351° |
| 2026-05-07 19:19 | 36.07882 | -115.14730 | 2124 ft | 3 kts | 351° |
| 2026-05-07 19:19 | 36.07914 | -115.14736 | 2123 ft | 6 kts | 351° |
| 2026-05-07 19:20 | 36.07964 | -115.14745 | 2122 ft | 7 kts | 358° |
| 2026-05-07 19:20 | 36.07978 | -115.14732 | 2125 ft | 2 kts | 60° |